Bogue, Kansas
Current Conditions -  °F | °C
As of 1:53 AM on Wednesday 26 Nov 2014 (Local Time) from KHLC Reporting Station
Broken Clouds Broken Clouds  
Wind Chill: 38°   Ceiling: 10000
Heat Index: 44°   Visibility: 10mi
Dew Point: 31°   Wind: 12mph
Humidity: 60%   Direction: 310°NW
Pressure: 30.01"   Gusts: NA
Location:  39.36°N, 99.69°W
Report Text: KHLC 260753Z AUTO 31010KT 10SM BKN100 07/M01 A3001 RMK AO2 SLP164 T00671006
Loading
Personal Weather Stations






























Interactive Weather Map New forecast layout! Learn more

10-Day Weather Forecast

Advertisements
Track Severe Weather on mobile